Time;durP1;ratioP1;P1;durP2;ratioP2;P2;SDS_P1;SDS_P2;PMS_P1;PMS_P2;Temp;Humidity;BMP_temperature;BMP_pressure;BME280_temperature;BME280_humidity;BME280_pressure;Samples;Min_cycle;Max_cycle;Signal;HPM_P1;HPM_P2
2022/05/30 00:00:48;;;;;;;25.65;12.55;;;;;;;19.46;96.98;99891.31;5012084;28;20025;-85
2022/05/30 00:03:14;;;;;;;38.97;13.38;;;;;;;19.53;97.27;99900.38;5011958;28;20116;-86
2022/05/30 00:05:46;;;;;;;28.35;13.02;;;;;;;19.58;97.72;99899.78;5012021;28;20127;-86
2022/05/30 00:08:11;;;;;;;27.95;13.07;;;;;;;19.57;97.68;99895.38;5012011;28;20030;-85
2022/05/30 00:10:37;;;;;;;31.67;13.50;;;;;;;19.58;97.65;99883.41;4994392;28;20392;-85
2022/05/30 00:13:02;;;;;;;37.67;15.05;;;;;;;19.65;97.94;99890.59;5011712;28;20121;-85
2022/05/30 00:15:29;;;;;;;48.60;14.57;;;;;;;19.63;97.97;99889.13;4994330;28;20025;-85
2022/05/30 00:17:56;;;;;;;30.85;15.07;;;;;;;19.62;98.02;99876.50;5011967;28;20026;-85
2022/05/30 00:20:24;;;;;;;32.60;14.20;;;;;;;19.69;98.44;99891.88;5012195;28;20038;-86
2022/05/30 00:22:50;;;;;;;27.98;13.20;;;;;;;19.67;98.59;99898.56;4994470;28;20032;-85
2022/05/30 00:25:16;;;;;;;29.25;14.73;;;;;;;19.76;98.84;99897.34;5011703;28;20112;-85
2022/05/30 00:27:43;;;;;;;36.15;13.23;;;;;;;19.71;98.24;99886.22;5011812;28;20036;-86
2022/05/30 00:30:09;;;;;;;24.75;14.13;;;;;;;19.74;98.23;99874.91;4994203;28;20471;-86
2022/05/30 00:32:36;;;;;;;28.95;14.32;;;;;;;19.78;98.36;99887.09;5011838;28;20033;-86
2022/05/30 00:35:03;;;;;;;30.15;15.70;;;;;;;19.82;98.96;99877.44;5011889;28;20061;-86
2022/05/30 00:37:29;;;;;;;32.40;12.45;;;;;;;19.80;99.04;99885.00;4999144;28;20025;-86
2022/05/30 00:39:54;;;;;;;27.63;14.00;;;;;;;19.85;98.53;99888.81;5017207;28;20408;-86
2022/05/30 00:42:23;;;;;;;27.48;12.93;;;;;;;19.81;97.39;99892.16;5016097;28;20083;-86
2022/05/30 00:44:49;;;;;;;30.60;14.02;;;;;;;19.78;97.61;99892.56;5015922;28;20083;-86
2022/05/30 00:47:17;;;;;;;27.27;13.02;;;;;;;19.81;97.50;99875.78;4998054;28;20057;-86
2022/05/30 00:49:45;;;;;;;19.30;12.50;;;;;;;19.90;96.92;99874.56;5015827;28;20029;-86
2022/05/30 00:52:16;;;;;;;35.08;12.55;;;;;;;19.66;96.50;99872.34;5015733;28;20044;-87
2022/05/30 00:55:04;;;;;;;32.47;14.57;;;;;;;19.60;97.09;99867.69;4998004;28;20029;-86
2022/05/30 00:57:32;;;;;;;30.30;14.65;;;;;;;19.68;97.30;99875.69;5015866;28;20018;-88
2022/05/30 01:00:01;;;;;;;32.17;14.05;;;;;;;19.75;97.82;99877.44;5016122;28;20021;-88
2022/05/30 01:02:31;;;;;;;31.50;14.32;;;;;;;19.77;97.42;99861.69;5015493;28;20108;-87
2022/05/30 01:07:43;;;;;;;26.00;13.60;;;;;;;19.78;97.22;99863.38;5016878;28;20025;-88
2022/05/30 01:10:12;;;;;;;26.25;13.43;;;;;;;19.65;96.76;99841.50;5015669;28;20139;-87
2022/05/30 01:12:43;;;;;;;25.10;12.63;;;;;;;19.77;96.91;99869.03;4997723;28;20026;-88
2022/05/30 01:15:13;;;;;;;23.65;12.68;;;;;;;19.84;97.23;99867.19;4997609;28;20049;-87
2022/05/30 01:17:51;;;;;;;38.65;12.75;;;;;;;19.82;96.64;99850.16;5015327;28;20025;-87
2022/05/30 01:20:50;;;;;;;34.35;13.85;;;;;;;19.83;96.80;99851.84;4997755;28;20034;-87
2022/05/30 01:23:41;;;;;;;28.08;12.30;;;;;;;19.83;95.99;99851.84;4987290;28;20034;-87
2022/05/30 01:26:42;;;;;;;30.02;13.02;;;;;;;19.76;95.64;99842.78;5015684;28;20541;-87
2022/05/30 01:29:13;;;;;;;32.05;12.43;;;;;;;19.81;95.22;99834.84;4998383;28;20030;-87
2022/05/30 01:31:39;;;;;;;37.95;12.32;;;;;;;19.71;95.31;99815.28;4998912;28;20033;-87
2022/05/30 01:34:04;;;;;;;29.77;13.02;;;;;;;19.73;95.30;99824.09;4997597;28;20026;-86
2022/05/30 01:36:32;;;;;;;26.17;13.30;;;;;;;19.76;95.52;99849.09;4997424;28;20118;-87
2022/05/30 01:38:57;;;;;;;49.75;13.95;;;;;;;19.74;95.27;99834.81;4997378;28;20025;-86
2022/05/30 01:41:23;;;;;;;27.92;11.30;;;;;;;19.85;94.63;99841.56;4997787;28;20040;-86
2022/05/30 01:43:49;;;;;;;37.40;12.65;;;;;;;19.82;94.18;99833.78;4997202;28;20484;-86
2022/05/30 01:46:18;;;;;;;27.52;13.23;;;;;;;19.82;94.40;99820.97;5014432;28;20483;-87
2022/05/30 01:48:45;;;;;;;29.17;12.25;;;;;;;19.79;94.79;99829.56;4981013;28;20045;-86
2022/05/30 01:51:12;;;;;;;35.67;13.75;;;;;;;19.73;94.55;99814.03;5014399;28;20028;-87
2022/05/30 01:53:38;;;;;;;34.85;12.27;;;;;;;19.79;94.77;99842.38;4996868;28;20632;-87
2022/05/30 01:56:05;;;;;;;41.70;13.13;;;;;;;19.74;94.98;99836.69;5014367;28;20036;-87
2022/05/30 01:58:32;;;;;;;34.80;11.63;;;;;;;19.79;95.01;99839.66;4996468;28;20026;-87
2022/05/30 02:01:02;;;;;;;36.72;12.82;;;;;;;19.82;95.23;99840.09;4996991;28;20092;-87
2022/05/30 02:03:27;;;;;;;46.90;13.93;;;;;;;19.78;95.03;99827.91;4996775;28;20022;-87
2022/05/30 02:05:53;;;;;;;26.10;12.65;;;;;;;19.78;95.08;99832.53;5014359;28;20022;-87
2022/05/30 02:08:21;;;;;;;27.42;12.82;;;;;;;19.84;95.61;99842.63;4996365;28;20072;-86
2022/05/30 02:10:48;;;;;;;28.08;12.40;;;;;;;19.87;95.53;99853.13;4997032;28;20022;-87
2022/05/30 02:13:14;;;;;;;39.95;13.70;;;;;;;19.92;95.06;99861.53;4996855;28;20522;-87
2022/05/30 02:18:23;;;;;;;33.85;12.65;;;;;;;19.95;95.47;99855.69;5014250;28;20029;-88
2022/05/30 02:20:50;;;;;;;39.58;13.43;;;;;;;20.00;95.71;99869.53;4996143;28;20026;-87
2022/05/30 02:23:16;;;;;;;27.00;14.23;;;;;;;19.99;95.67;99865.16;4997244;28;20101;-87
2022/05/30 02:25:43;;;;;;;31.65;14.85;;;;;;;19.98;95.23;99877.09;4997377;28;20041;-87
2022/05/30 02:28:08;;;;;;;26.52;13.25;;;;;;;19.96;95.46;99873.75;4996500;28;20514;-87
2022/05/30 02:30:34;;;;;;;31.17;12.93;;;;;;;19.99;95.53;99873.34;5014015;28;20018;-87
2022/05/30 02:36:38;;;;;;;29.02;14.27;;;;;;;20.07;94.94;99889.53;4996359;28;20061;-86
2022/05/30 02:38:29;;;;;;;27.13;14.15;;;;;;;20.08;94.79;99874.84;5014445;28;20025;-87
2022/05/30 02:40:54;;;;;;;37.92;14.32;;;;;;;20.08;94.93;99883.88;5013696;28;20025;-87
2022/05/30 02:43:20;;;;;;;27.13;13.32;;;;;;;20.08;94.54;99888.50;5014418;28;20036;-87
2022/05/30 02:45:45;;;;;;;29.65;13.63;;;;;;;20.09;94.76;99879.25;5013463;28;20480;-86
2022/05/30 02:48:10;;;;;;;39.55;14.57;;;;;;;20.12;94.58;99878.03;5013939;28;20046;-87
2022/05/30 02:50:36;;;;;;;40.38;14.18;;;;;;;20.10;94.55;99883.66;5014293;28;20033;-87
2022/05/30 02:53:01;;;;;;;27.75;14.10;;;;;;;20.09;94.81;99868.31;4996687;28;20165;-87
2022/05/30 02:55:27;;;;;;;37.17;14.38;;;;;;;20.08;95.09;99872.13;4996789;28;20168;-87
2022/05/30 04:32:12;;;;;;;161.98;28.88;;;;;;;20.69;93.42;99902.16;5011039;28;20060;-86
2022/05/30 04:34:37;;;;;;;105.38;26.08;;;;;;;20.75;93.34;99895.84;4994349;28;20412;-86
2022/05/30 04:37:04;;;;;;;66.93;23.05;;;;;;;20.82;92.93;99891.25;4994331;28;20164;-86
2022/05/30 04:39:30;;;;;;;70.05;21.40;;;;;;;20.84;92.77;99889.13;5012244;28;20520;-87
2022/05/30 04:41:56;;;;;;;83.43;20.20;;;;;;;20.87;92.68;99889.56;4994514;28;20030;-87
2022/05/30 04:44:21;;;;;;;75.68;20.33;;;;;;;20.88;93.93;99874.00;4994243;28;20026;-85
2022/05/30 04:46:52;;;;;;;100.93;23.13;;;;;;;20.95;93.73;99875.66;4994638;28;20095;-86
2022/05/30 04:49:18;;;;;;;82.88;20.98;;;;;;;21.02;93.45;99881.16;5012328;28;20033;-86
2022/05/30 04:51:44;;;;;;;85.88;19.23;;;;;;;21.17;93.95;99899.06;5011321;28;20049;-86
2022/05/30 04:54:09;;;;;;;109.38;20.77;;;;;;;21.18;94.07;99886.22;5011767;28;20045;-86
2022/05/30 04:56:36;;;;;;;163.73;26.33;;;;;;;21.27;93.89;99898.63;5011092;28;20384;-85
2022/05/30 04:59:02;;;;;;;60.67;17.05;;;;;;;21.30;93.23;99917.34;5011570;28;20097;-86
2022/05/30 05:01:30;;;;;;;90.18;20.80;;;;;;;21.30;92.49;99900.94;4994033;28;20173;-86
2022/05/30 05:03:56;;;;;;;80.30;18.30;;;;;;;21.43;91.80;99916.50;5011808;28;20487;-86
2022/05/30 05:06:22;;;;;;;98.80;22.15;;;;;;;21.38;90.39;99925.34;5011640;28;20060;-86
2022/05/30 05:08:51;;;;;;;65.30;21.95;;;;;;;21.52;91.25;99932.50;5011332;28;20022;-86
2022/05/30 05:11:23;;;;;;;82.82;21.92;;;;;;;21.62;91.39;99932.88;4993627;28;20034;-86
2022/05/30 05:13:49;;;;;;;83.32;24.88;;;;;;;21.66;91.97;99936.03;4993753;28;20060;-85
2022/05/30 05:16:16;;;;;;;59.35;21.05;;;;;;;21.78;91.63;99944.44;4993636;28;20038;-87
2022/05/30 05:18:41;;;;;;;60.78;22.30;;;;;;;21.68;89.54;99948.47;5011544;28;20053;-86
2022/05/30 05:21:07;;;;;;;71.97;23.40;;;;;;;21.69;88.27;99955.63;5011613;28;20057;-86
2022/05/30 05:23:33;;;;;;;59.50;24.85;;;;;;;21.70;88.28;99951.84;4997298;28;20411;-89
2022/05/30 05:26:02;;;;;;;60.70;31.25;;;;;;;21.70;87.91;99956.47;5014967;28;20030;-85
2022/05/30 05:28:28;;;;;;;61.33;26.08;;;;;;;21.61;85.76;99953.13;4997015;28;20029;-85
2022/05/30 05:30:53;;;;;;;61.58;40.95;;;;;;;21.60;84.20;99950.59;4997346;28;20050;-86
2022/05/30 05:33:19;;;;;;;158.40;42.45;;;;;;;21.70;84.09;99959.22;5015095;28;20479;-86
2022/05/30 05:35:46;;;;;;;75.20;34.97;;;;;;;21.83;84.10;99967.41;4997251;28;20021;-86
2022/05/30 05:38:12;;;;;;;59.90;21.15;;;;;;;21.84;83.51;99968.22;4996977;28;20022;-85
2022/05/30 05:40:42;;;;;;;58.10;20.48;;;;;;;21.74;82.98;99962.38;4981069;28;20029;-86
2022/05/30 05:43:08;;;;;;;43.88;21.05;;;;;;;21.81;83.50;99985.06;5014567;28;20080;-87
2022/05/30 05:45:39;;;;;;;50.80;16.95;;;;;;;21.65;83.30;99975.41;5014793;28;20018;-85
2022/05/30 05:48:06;;;;;;;49.85;15.02;;;;;;;21.80;83.21;100005.31;5014733;28;20050;-87
2022/05/30 05:50:32;;;;;;;45.97;15.65;;;;;;;21.69;82.89;99977.53;4997182;28;20061;-86
2022/05/30 05:52:57;;;;;;;39.25;15.00;;;;;;;21.87;83.20;99995.16;4997369;28;20072;-85
2022/05/30 05:55:23;;;;;;;47.40;15.73;;;;;;;21.98;85.19;100008.25;4981029;28;20037;-86
2022/05/30 05:57:49;;;;;;;48.72;15.60;;;;;;;21.91;84.67;99996.47;5014506;28;20025;-86
2022/05/30 06:00:16;;;;;;;51.67;19.02;;;;;;;21.93;85.22;100011.63;5014295;28;20144;-86
2022/05/30 06:02:41;;;;;;;52.88;21.83;;;;;;;21.97;86.08;100007.41;4996479;28;20060;-85
2022/05/30 06:05:08;;;;;;;64.05;27.20;;;;;;;22.08;86.09;100022.34;5014752;28;20058;-86
2022/05/30 06:07:36;;;;;;;54.55;27.92;;;;;;;22.17;85.94;100015.56;5013876;28;20053;-86
2022/05/30 06:10:04;;;;;;;69.90;37.83;;;;;;;22.16;84.50;100011.16;5014649;28;20028;-86
2022/05/30 06:12:30;;;;;;;77.75;35.78;;;;;;;22.21;84.47;100014.09;4996364;28;20026;-86
2022/05/30 06:14:55;;;;;;;70.75;42.65;;;;;;;22.22;84.30;100002.94;5013858;28;20030;-85
2022/05/30 06:17:21;;;;;;;64.07;37.15;;;;;;;22.24;83.42;100008.19;5014215;28;20025;-85
2022/05/30 06:19:47;;;;;;;64.50;32.80;;;;;;;22.28;82.59;100012.19;4980167;28;20025;-86
2022/05/30 06:22:13;;;;;;;60.75;27.35;;;;;;;22.24;81.57;100013.66;4996497;28;20110;-85
2022/05/30 06:24:39;;;;;;;63.45;26.70;;;;;;;22.31;81.21;100021.88;4996009;28;20145;-85
2022/05/30 06:27:06;;;;;;;45.47;29.33;;;;;;;22.30;81.16;100034.72;4995665;28;20025;-86
2022/05/30 06:29:33;;;;;;;58.45;29.60;;;;;;;22.32;81.52;100032.63;5013661;28;20032;-86
2022/05/30 06:31:58;;;;;;;52.60;29.85;;;;;;;22.37;81.59;100035.56;5013475;28;20064;-85
2022/05/30 06:34:24;;;;;;;38.67;24.75;;;;;;;22.41;82.33;100042.31;5012198;28;20116;-86
2022/05/30 06:36:50;;;;;;;45.63;27.10;;;;;;;22.48;81.71;100045.00;4995319;28;20029;-86
2022/05/30 06:39:19;;;;;;;57.50;22.38;;;;;;;22.50;80.71;100049.22;5013539;28;20022;-85
2022/05/30 06:41:45;;;;;;;45.70;15.70;;;;;;;22.61;81.07;100051.28;4997505;28;20531;-85
2022/05/30 06:44:11;;;;;;;36.88;13.40;;;;;;;22.54;78.74;100053.19;5013415;28;20036;-85
2022/05/30 06:46:37;;;;;;;37.47;14.57;;;;;;;22.68;79.07;100057.63;5013267;28;20442;-85
2022/05/30 06:49:06;;;;;;;30.13;12.77;;;;;;;22.76;77.02;100062.84;4995771;28;20415;-86
2022/05/30 06:51:35;;;;;;;31.48;14.55;;;;;;;22.79;77.99;100067.06;5013270;28;20034;-85
2022/05/30 06:54:00;;;;;;;31.25;15.30;;;;;;;22.84;77.71;100080.13;5020256;28;20030;-85
2022/05/30 06:56:32;;;;;;;26.80;16.42;;;;;;;22.84;76.92;100074.66;5022571;28;20029;-86
2022/05/30 06:58:58;;;;;;;37.03;18.52;;;;;;;22.73;76.30;100073.41;5020557;28;20037;-85
2022/05/30 07:01:32;;;;;;;35.88;21.27;;;;;;;22.65;76.87;100076.41;5020737;28;20033;-85
2022/05/30 07:03:57;;;;;;;43.92;21.55;;;;;;;22.60;77.44;100067.94;5013191;28;20049;-86
2022/05/30 07:06:31;;;;;;;34.35;21.95;;;;;;;22.69;77.31;100085.84;5034332;28;20053;-86
2022/05/30 07:08:57;;;;;;;42.28;21.58;;;;;;;22.72;77.39;100093.66;5027102;28;20077;-85
2022/05/30 07:11:23;;;;;;;48.63;23.27;;;;;;;22.69;77.66;100083.97;5029958;28;20036;-86
2022/05/30 07:13:49;;;;;;;33.88;20.83;;;;;;;22.57;77.74;100057.41;5014115;28;20040;-85
2022/05/30 07:16:16;;;;;;;37.88;20.15;;;;;;;22.78;78.03;100085.41;4995287;28;20022;-85
2022/05/30 07:18:43;;;;;;;48.88;19.20;;;;;;;22.68;76.88;100071.34;5013081;28;20026;-85
2022/05/30 07:21:10;;;;;;;29.98;15.38;;;;;;;22.80;76.63;100085.19;5012666;28;20037;-85
2022/05/30 07:23:37;;;;;;;27.98;13.90;;;;;;;22.83;76.45;100079.28;5012717;28;20487;-86
2022/05/30 07:26:08;;;;;;;22.73;14.32;;;;;;;22.89;76.00;100077.56;5013097;28;20506;-85
2022/05/30 07:28:34;;;;;;;47.70;12.77;;;;;;;22.91;76.87;100076.28;4994890;28;20021;-86
2022/05/30 07:31:10;;;;;;;16.17;10.57;;;;;;;23.04;76.41;100083.59;4991513;28;20058;-85
2022/05/30 07:33:38;;;;;;;26.80;13.55;;;;;;;23.05;75.98;100082.56;4991750;28;20030;-86
2022/05/30 07:36:08;;;;;;;24.92;11.18;;;;;;;23.10;75.47;100075.34;4992825;28;20084;-86
2022/05/30 07:38:34;;;;;;;22.40;11.27;;;;;;;23.19;76.11;100081.41;4994662;28;20480;-86
2022/05/30 07:41:00;;;;;;;21.85;10.45;;;;;;;23.18;75.05;100083.31;4995015;28;20026;-86
2022/05/30 07:43:25;;;;;;;23.98;10.05;;;;;;;23.18;74.12;100077.81;4994477;28;20026;-86
2022/05/30 07:45:51;;;;;;;18.95;10.45;;;;;;;23.25;74.10;100077.78;4992610;28;20049;-85
2022/05/30 07:48:16;;;;;;;38.80;10.65;;;;;;;23.35;73.77;100094.63;4994852;28;20042;-86
2022/05/30 07:50:42;;;;;;;16.35;9.75;;;;;;;23.37;75.00;100076.03;4995897;28;20376;-86
2022/05/30 07:53:08;;;;;;;23.83;10.88;;;;;;;23.44;74.83;100079.59;4994666;28;20145;-86
2022/05/30 07:55:34;;;;;;;24.38;10.18;;;;;;;23.56;74.09;100091.56;4993878;28;20476;-86
2022/05/30 07:58:04;;;;;;;16.23;9.88;;;;;;;23.71;74.41;100083.00;4995952;28;20049;-86
2022/05/30 08:00:33;;;;;;;27.30;11.13;;;;;;;23.83;73.36;100098.53;4995434;28;20141;-86
2022/05/30 08:02:59;;;;;;;35.63;12.93;;;;;;;23.89;72.63;100077.56;4978639;28;20412;-86
2022/05/30 08:05:25;;;;;;;25.35;12.18;;;;;;;24.03;71.15;100103.03;4994018;28;20026;-86
2022/05/30 08:07:52;;;;;;;22.02;10.25;;;;;;;23.95;72.15;100090.41;4992316;28;20034;-86
2022/05/30 08:10:19;;;;;;;28.02;10.00;;;;;;;23.97;71.62;100092.94;4994372;28;20088;-85
2022/05/30 08:12:46;;;;;;;20.27;11.25;;;;;;;24.02;71.71;100104.94;4992687;28;20027;-86
2022/05/30 08:15:13;;;;;;;20.17;10.63;;;;;;;24.03;71.00;100097.53;4994818;28;20523;-86
2022/05/30 08:17:40;;;;;;;30.30;11.00;;;;;;;23.96;70.34;100091.25;4993304;28;20026;-86
2022/05/30 08:20:09;;;;;;;19.67;10.60;;;;;;;23.98;69.53;100095.44;4994884;28;20113;-86
2022/05/30 08:22:34;;;;;;;18.92;9.88;;;;;;;23.91;69.76;100107.56;4994049;28;20038;-86
2022/05/30 08:25:03;;;;;;;18.75;10.05;;;;;;;23.97;67.61;100112.16;4993357;28;20410;-85
2022/05/30 08:27:29;;;;;;;19.00;9.88;;;;;;;23.88;67.02;100105.28;4994578;28;20116;-85
2022/05/30 08:29:54;;;;;;;20.75;10.50;;;;;;;23.95;68.57;100106.03;4993203;28;20022;-85
2022/05/30 08:32:20;;;;;;;23.02;9.77;;;;;;;23.90;68.45;100092.13;5013616;28;20460;-85
2022/05/30 08:34:45;;;;;;;15.57;9.15;;;;;;;24.01;68.98;100110.63;5013671;28;20032;-85
2022/05/30 08:37:11;;;;;;;23.80;9.50;;;;;;;24.13;68.73;100114.34;5013719;28;20029;-85
2022/05/30 08:42:28;;;;;;;20.83;10.80;;;;;;;24.35;68.96;100112.88;5012801;28;20108;-85
2022/05/30 08:44:56;;;;;;;16.75;8.80;;;;;;;24.47;66.96;100110.22;5013575;28;20450;-86
2022/05/30 08:47:50;;;;;;;22.42;8.68;;;;;;;24.60;67.55;100121.94;5014768;28;20053;-85
2022/05/30 08:50:30;;;;;;;22.17;9.32;;;;;;;24.67;66.19;100095.22;5015147;28;20045;-84
2022/05/30 08:53:31;;;;;;;23.50;9.48;;;;;;;25.03;66.11;100107.28;4996067;28;20037;-85
2022/05/30 08:56:08;;;;;;;28.80;9.73;;;;;;;25.24;65.06;100123.31;5009473;28;20149;-85
2022/05/30 08:59:03;;;;;;;12.95;8.30;;;;;;;25.33;65.93;100116.41;5017752;28;20499;-85
2022/05/30 09:01:43;;;;;;;16.02;7.95;;;;;;;25.38;64.34;100120.13;5017834;28;20462;-85
2022/05/30 09:04:39;;;;;;;18.45;8.35;;;;;;;25.55;63.25;100112.09;5017565;28;20026;-85
2022/05/30 09:07:09;;;;;;;18.20;7.85;;;;;;;25.74;63.88;100119.22;5016516;28;20037;-85
2022/05/30 09:09:44;;;;;;;10.55;6.15;;;;;;;25.83;62.19;100126.06;5017655;28;20495;-84
2022/05/30 09:12:12;;;;;;;15.30;6.25;;;;;;;25.92;62.02;100126.56;5017550;28;20075;-86
2022/05/30 09:14:48;;;;;;;12.23;5.32;;;;;;;25.98;61.83;100134.72;5017006;28;20108;-84
2022/05/30 09:17:21;;;;;;;11.25;5.90;;;;;;;25.85;61.34;100125.81;4999919;28;20083;-84
2022/05/30 09:19:47;;;;;;;20.77;6.40;;;;;;;25.93;61.74;100129.06;5000215;28;20129;-85
2022/05/30 09:22:14;;;;;;;15.68;6.28;;;;;;;25.91;61.07;100125.72;5016704;28;20080;-88
2022/05/30 09:25:55;;;;;;;17.58;7.78;;;;;;;25.95;61.88;100137.97;5017256;28;20026;-85
2022/05/30 09:27:29;;;;;;;19.88;6.60;;;;;;;25.83;60.19;100150.03;5016935;28;20030;-85
2022/05/30 09:29:57;;;;;;;11.43;5.93;;;;;;;25.79;61.45;100138.63;5017820;28;20034;-85
2022/05/30 09:32:43;;;;;;;33.78;10.45;;;;;;;25.85;61.04;100137.69;4999896;28;20038;-85
2022/05/30 09:35:32;;;;;;;14.73;6.43;;;;;;;25.88;61.16;100147.38;5017070;28;20045;-85
2022/05/30 09:38:15;;;;;;;14.32;6.50;;;;;;;25.90;59.55;100148.81;5017598;28;20025;-84
2022/05/30 09:40:45;;;;;;;19.33;7.40;;;;;;;25.88;59.48;100134.47;5000072;28;20032;-84
2022/05/30 09:43:22;;;;;;;12.68;5.93;;;;;;;26.03;59.38;100149.69;5017228;28;20495;-84
2022/05/30 09:45:47;;;;;;;21.05;6.38;;;;;;;26.09;60.59;100152.34;5016668;28;20040;-84
2022/05/30 09:48:18;;;;;;;11.98;6.22;;;;;;;26.14;58.98;100149.72;5016421;28;20022;-84
2022/05/30 09:50:50;;;;;;;15.88;6.25;;;;;;;26.24;58.31;100147.25;4997814;28;20476;-85
2022/05/30 09:53:45;;;;;;;12.68;5.80;;;;;;;26.46;58.18;100161.28;5016556;28;20029;-84
2022/05/30 09:56:15;;;;;;;15.23;6.68;;;;;;;26.43;57.51;100159.00;5016657;28;20085;-85
2022/05/30 09:58:59;;;;;;;12.55;5.97;;;;;;;26.53;58.42;100164.78;5016554;28;20030;-84
2022/05/30 10:01:27;;;;;;;10.10;5.72;;;;;;;26.58;58.07;100159.34;5014857;28;20021;-84
2022/05/30 10:03:59;;;;;;;24.13;6.63;;;;;;;26.74;58.27;100161.41;5015441;28;20028;-84
2022/05/30 10:06:27;;;;;;;30.88;15.18;;;;;;;26.77;56.82;100162.84;4998962;28;20484;-84
2022/05/30 10:09:18;;;;;;;13.13;6.38;;;;;;;26.74;56.20;100163.31;5015978;28;20036;-84
2022/05/30 10:11:52;;;;;;;19.10;6.90;;;;;;;26.68;56.57;100159.59;5015411;28;20579;-84
2022/05/30 10:14:40;;;;;;;13.73;6.55;;;;;;;26.77;55.31;100171.09;5016615;28;20041;-84
2022/05/30 10:17:21;;;;;;;18.23;6.80;;;;;;;26.94;55.56;100181.19;5015876;28;20430;-84
2022/05/30 10:19:48;;;;;;;13.07;7.70;;;;;;;26.94;55.01;100174.88;5015478;28;20029;-84
2022/05/30 10:28:26;;;;;;;16.27;7.28;;;;;;;27.27;54.05;100174.19;5016168;28;20036;-83
2022/05/30 10:31:12;;;;;;;18.95;7.93;;;;;;;27.42;53.04;100189.19;5014750;28;20112;-83
2022/05/30 10:34:11;;;;;;;18.38;7.50;;;;;;;27.57;51.44;100183.09;4996893;28;20046;-84
2022/05/30 10:37:01;;;;;;;13.43;6.10;;;;;;;27.52;51.99;100189.34;5014696;28;20036;-83
2022/05/30 10:40:04;;;;;;;12.13;6.30;;;;;;;27.62;52.66;100188.72;4997082;28;20026;-83
2022/05/30 10:42:35;;;;;;;18.17;6.80;;;;;;;27.72;51.92;100186.16;5015471;28;20030;-82
2022/05/30 10:45:08;;;;;;;17.80;6.47;;;;;;;27.63;51.77;100179.34;5015387;28;20399;-83
2022/05/30 10:47:40;;;;;;;13.90;6.88;;;;;;;27.49;51.72;100178.00;5015725;28;20119;-83
2022/05/30 10:50:24;;;;;;;;;;;;;;;27.42;51.23;100189.19;5015804;28;20053;-84
2022/05/30 10:53:05;;;;;;;11.77;6.65;;;;;;;27.34;51.75;100189.50;5015325;28;20350;-84
2022/05/30 10:55:40;;;;;;;12.83;6.23;;;;;;;27.33;51.91;100178.72;5015581;28;20017;-83
2022/05/30 10:58:22;;;;;;;10.13;6.47;;;;;;;27.42;51.24;100177.25;5014740;28;20018;-83
2022/05/30 11:00:57;;;;;;;13.35;6.65;;;;;;;27.57;50.98;100177.59;5015222;28;20065;-83
2022/05/30 11:03:37;;;;;;;9.13;7.10;;;;;;;27.77;50.50;100179.88;4997807;28;20030;-84
2022/05/30 11:06:08;;;;;;;15.30;6.47;;;;;;;27.83;49.86;100185.25;5015779;28;20028;-83
2022/05/30 11:08:45;;;;;;;11.02;6.25;;;;;;;27.98;49.61;100170.91;5014643;28;20431;-83
2022/05/30 11:11:39;;;;;;;10.77;6.07;;;;;;;28.03;48.36;100171.81;5015215;28;20025;-82
2022/05/30 11:14:31;;;;;;;13.88;6.03;;;;;;;28.16;48.71;100167.09;4997078;28;20113;-83
2022/05/30 11:17:22;;;;;;;15.73;6.22;;;;;;;28.18;48.85;100175.97;5014458;28;20022;-82
2022/05/30 11:20:07;;;;;;;12.75;5.65;;;;;;;28.02;48.05;100172.91;4996101;28;20522;-84
2022/05/30 11:22:46;;;;;;;14.60;6.65;;;;;;;27.95;47.98;100176.94;5013846;28;20034;-83
2022/05/30 11:25:19;;;;;;;19.45;6.85;;;;;;;28.03;48.58;100162.69;5014116;28;20025;-84
2022/05/30 11:28:09;;;;;;;14.68;6.40;;;;;;;28.10;48.07;100175.28;4996733;28;20181;-83
2022/05/30 11:30:53;;;;;;;22.65;6.03;;;;;;;28.12;46.99;100175.03;5028458;28;20048;-81
2022/05/30 11:33:42;;;;;;;11.70;5.20;;;;;;;28.32;47.11;100177.28;5022225;28;20032;-82
2022/05/30 11:36:33;;;;;;;32.83;6.63;;;;;;;28.44;46.05;100175.31;5014581;28;20045;-83
2022/05/30 11:39:42;;;;;;;14.20;4.88;;;;;;;28.55;45.71;100177.13;5014508;28;20022;-84
2022/05/30 11:42:32;;;;;;;21.55;6.07;;;;;;;28.70;45.20;100171.84;4996941;28;20515;-85
2022/05/30 11:45:02;;;;;;;17.10;5.03;;;;;;;28.97;45.55;100170.03;5014653;28;20037;-84
2022/05/30 11:47:57;;;;;;;8.38;4.93;;;;;;;29.13;45.07;100184.94;5014717;28;20080;-83
2022/05/30 11:50:33;;;;;;;15.00;4.68;;;;;;;29.22;44.52;100183.38;5014630;28;20034;-83
2022/05/30 11:53:35;;;;;;;10.82;4.30;;;;;;;29.21;44.83;100186.41;5014693;28;20091;-82
2022/05/30 11:56:21;;;;;;;10.47;4.60;;;;;;;29.08;44.43;100182.91;5014243;28;20029;-84
2022/05/30 11:59:21;;;;;;;16.55;5.10;;;;;;;29.27;44.38;100185.41;5014657;28;20408;-83
2022/05/30 12:01:50;;;;;;;5.60;4.05;;;;;;;29.40;42.95;100176.69;5014407;28;20069;-83
2022/05/30 12:04:28;;;;;;;17.05;4.70;;;;;;;29.70;43.81;100193.69;5014157;28;20330;-83
2022/05/30 12:07:03;;;;;;;12.30;5.30;;;;;;;29.86;42.15;100181.69;5013220;28;20030;-84
2022/05/30 12:10:13;;;;;;;10.05;4.78;;;;;;;29.96;42.60;100195.66;5013945;28;20571;-82
2022/05/30 12:12:44;;;;;;;16.35;4.95;;;;;;;30.07;43.00;100186.34;4944363;28;20563;-83
2022/05/30 12:15:44;;;;;;;9.48;5.05;;;;;;;30.26;43.02;100189.56;5016606;28;20034;-82
2022/05/30 12:24:19;;;;;;;18.42;5.75;;;;;;;29.81;44.19;100198.25;5014650;28;20434;-82
2022/05/30 12:26:54;;;;;;;10.95;5.05;;;;;;;29.84;44.29;100194.16;5014621;28;20037;-82
2022/05/30 12:29:37;;;;;;;10.55;5.05;;;;;;;29.80;43.71;100202.13;5013302;28;20054;-84
2022/05/30 12:32:09;;;;;;;9.38;5.13;;;;;;;29.67;43.19;100202.50;5015074;28;20424;-83
2022/05/30 12:37:49;;;;;;;12.77;5.47;;;;;;;29.65;43.40;100202.78;5017020;28;20521;-83
2022/05/30 12:40:26;;;;;;;14.95;6.07;;;;;;;29.71;43.21;100209.22;4999004;28;20034;-84
2022/05/30 12:43:07;;;;;;;11.68;5.72;;;;;;;29.72;42.71;100205.38;4998794;28;20522;-84
2022/05/30 12:46:00;;;;;;;11.05;5.70;;;;;;;29.69;42.62;100190.06;5017924;28;20045;-84
2022/05/30 12:48:34;;;;;;;19.83;5.30;;;;;;;29.84;42.41;100203.31;5007616;28;20073;-83
2022/05/30 12:51:08;;;;;;;16.70;5.38;;;;;;;29.85;42.32;100204.97;5017751;28;20408;-83
2022/05/30 12:53:57;;;;;;;21.63;11.23;;;;;;;29.76;42.30;100205.66;5017129;28;20057;-83
2022/05/30 12:56:40;;;;;;;16.48;6.50;;;;;;;29.84;42.09;100208.84;5017145;28;20026;-83
2022/05/30 12:59:06;;;;;;;10.43;4.75;;;;;;;29.77;42.49;100205.41;5016129;28;20088;-83
2022/05/30 13:01:43;;;;;;;29.27;6.65;;;;;;;29.83;41.83;100204.41;4999718;28;20030;-82
2022/05/30 13:04:15;;;;;;;12.88;4.65;;;;;;;29.80;41.94;100204.88;4999349;28;20034;-83
2022/05/30 13:06:56;;;;;;;14.00;5.07;;;;;;;29.79;41.79;100211.53;5017195;28;20037;-82
2022/05/30 13:09:41;;;;;;;12.98;4.93;;;;;;;29.87;41.60;100213.03;5019515;28;20035;-83
2022/05/30 13:12:07;;;;;;;18.52;7.50;;;;;;;29.89;41.94;100219.16;5016599;28;20044;-83
2022/05/30 13:15:00;;;;;;;10.90;6.10;;;;;;;29.83;41.72;100212.72;4998128;28;20034;-83
2022/05/30 13:17:28;;;;;;;9.98;5.38;;;;;;;29.65;41.59;100204.72;5016668;28;20407;-83
2022/05/30 13:20:10;;;;;;;18.38;5.47;;;;;;;29.36;41.97;100197.69;5017408;28;20041;-83
2022/05/30 13:22:42;;;;;;;15.40;5.53;;;;;;;29.37;41.94;100216.00;4999749;28;20049;-83
2022/05/30 13:25:11;;;;;;;9.85;5.28;;;;;;;29.23;42.58;100207.22;5018121;28;20116;-83
2022/05/30 13:27:38;;;;;;;18.58;10.63;;;;;;;29.18;42.88;100207.13;5016964;28;20026;-83
2022/05/30 13:30:13;;;;;;;12.90;5.53;;;;;;;29.08;42.57;100199.53;5017130;28;20105;-83
2022/05/30 13:32:39;;;;;;;14.60;5.63;;;;;;;28.96;41.78;100201.56;4978487;28;20511;-83
2022/05/30 13:35:11;;;;;;;8.52;4.80;;;;;;;28.78;42.75;100192.72;4977366;28;20027;-82
2022/05/30 13:37:48;;;;;;;11.15;5.18;;;;;;;28.93;43.14;100195.69;4978555;28;20026;-84
2022/05/30 13:40:18;;;;;;;19.70;5.20;;;;;;;29.22;42.98;100202.78;4977682;28;20114;-84